Time;durP1;ratioP1;P1;durP2;ratioP2;P2;SDS_P1;SDS_P2;PMS_P1;PMS_P2;Temp;Humidity;BMP_temperature;BMP_pressure;BME280_temperature;BME280_humidity;BME280_pressure;Samples;Min_cycle;Max_cycle;Signal;HPM_P1;HPM_P2
2024/01/09 00:00:49;;;;;;;4.00;2.17;;;6.30;93.50;;;;;;5058651;28;20041;-71
2024/01/09 00:03:15;;;;;;;4.20;2.03;;;6.30;93.50;;;;;;5062633;28;20629;-71
2024/01/09 00:05:41;;;;;;;3.40;1.60;;;6.30;93.60;;;;;;5059759;28;20106;-71
2024/01/09 00:08:06;;;;;;;6.13;1.75;;;6.30;93.60;;;;;;5064634;28;20119;-71
2024/01/09 00:10:32;;;;;;;2.95;1.60;;;6.30;93.40;;;;;;5065599;28;20056;-71
2024/01/09 00:12:58;;;;;;;4.03;1.48;;;6.40;93.90;;;;;;5052057;28;20037;-70
2024/01/09 00:15:24;;;;;;;3.17;1.70;;;6.50;94.20;;;;;;5064880;28;20519;-72
2024/01/09 00:17:51;;;;;;;3.90;1.30;;;6.30;93.90;;;;;;5057833;28;20032;-70
2024/01/09 00:20:17;;;;;;;3.10;1.70;;;6.30;94.20;;;;;;5066284;28;20040;-71
2024/01/09 00:22:43;;;;;;;3.92;1.52;;;6.20;93.40;;;;;;5060876;28;20067;-72
2024/01/09 00:25:09;;;;;;;3.45;1.70;;;6.30;93.70;;;;;;5066603;28;20044;-71
2024/01/09 00:27:35;;;;;;;4.15;1.80;;;6.30;94.10;;;;;;5065432;28;20039;-71
2024/01/09 00:30:02;;;;;;;3.65;1.90;;;6.20;93.50;;;;;;5059258;28;20032;-71
2024/01/09 00:32:29;;;;;;;4.40;2.20;;;6.10;93.70;;;;;;5061955;28;20513;-72
2024/01/09 00:34:55;;;;;;;3.60;1.83;;;6.30;94.30;;;;;;5057472;28;20037;-70
2024/01/09 00:37:20;;;;;;;3.67;1.75;;;6.30;93.80;;;;;;5054394;28;20036;-70
2024/01/09 00:39:46;;;;;;;3.22;1.65;;;6.20;93.90;;;;;;5057827;28;20041;-71
2024/01/09 00:42:11;;;;;;;3.42;1.83;;;6.20;93.80;;;;;;5065071;28;20035;-71
2024/01/09 00:44:40;;;;;;;3.15;1.67;;;6.20;94.40;;;;;;5059147;28;20051;-71
2024/01/09 00:47:06;;;;;;;4.38;2.28;;;6.20;94.10;;;;;;5062388;28;20127;-72
2024/01/09 00:49:32;;;;;;;3.78;1.70;;;6.20;94.30;;;;;;5055748;28;20567;-70
2024/01/09 00:51:58;;;;;;;3.60;1.63;;;6.20;94.50;;;;;;5065111;28;20028;-72
2024/01/09 00:54:23;;;;;;;4.40;2.17;;;6.10;94.70;;;;;;5056322;28;20062;-71
2024/01/09 00:56:49;;;;;;;4.80;2.45;;;6.10;94.70;;;;;;5061294;28;20032;-71
2024/01/09 00:59:15;;;;;;;5.43;2.33;;;6.10;95.30;;;;;;5054121;28;21000;-71
2024/01/09 01:01:40;;;;;;;4.65;2.08;;;6.10;95.40;;;;;;5068878;28;20041;-71
2024/01/09 01:04:06;;;;;;;4.20;1.90;;;6.10;94.90;;;;;;5064482;28;20041;-70
2024/01/09 01:06:40;;;;;;;5.05;2.08;;;6.00;95.10;;;;;;5058140;28;20476;-70
2024/01/09 01:09:05;;;;;;;3.47;1.70;;;5.90;95.00;;;;;;5060736;28;20039;-71
2024/01/09 01:11:32;;;;;;;4.10;1.88;;;5.90;94.60;;;;;;5065359;28;20080;-72
2024/01/09 01:13:58;;;;;;;3.97;1.90;;;6.00;94.90;;;;;;5057494;28;20032;-71
2024/01/09 01:16:23;;;;;;;2.95;1.48;;;5.90;94.50;;;;;;5063202;28;20393;-71
2024/01/09 01:18:49;;;;;;;3.75;1.77;;;5.90;94.50;;;;;;5065877;28;20040;-70
2024/01/09 01:21:15;;;;;;;3.65;1.50;;;5.90;94.50;;;;;;5062299;28;20024;-71
2024/01/09 01:23:41;;;;;;;3.70;1.90;;;5.80;94.10;;;;;;5062376;28;20032;-71
2024/01/09 01:26:07;;;;;;;3.88;2.00;;;5.90;93.90;;;;;;5064270;28;20685;-71
2024/01/09 01:28:33;;;;;;;3.47;1.88;;;5.90;94.60;;;;;;5066067;28;20098;-71
2024/01/09 01:30:59;;;;;;;2.85;1.25;;;5.90;94.60;;;;;;5059189;28;20032;-71
2024/01/09 01:33:24;;;;;;;3.28;1.70;;;5.90;94.50;;;;;;5055983;28;20017;-70
2024/01/09 01:35:50;;;;;;;3.63;1.73;;;6.00;94.50;;;;;;5067602;28;20044;-71
2024/01/09 01:38:16;;;;;;;3.38;1.55;;;6.10;94.40;;;;;;5062250;28;20052;-70
2024/01/09 01:40:42;;;;;;;5.38;1.77;;;6.00;94.60;;;;;;5060873;28;20623;-70
2024/01/09 01:43:08;;;;;;;5.75;1.60;;;5.90;94.30;;;;;;5064872;28;20047;-70
2024/01/09 01:45:33;;;;;;;3.95;1.60;;;5.90;94.80;;;;;;5066655;28;20064;-71
2024/01/09 01:48:00;;;;;;;5.25;1.80;;;5.80;95.00;;;;;;5067564;28;20192;-70
2024/01/09 01:50:27;;;;;;;3.50;1.38;;;5.80;95.50;;;;;;5054685;28;20403;-71
2024/01/09 01:52:53;;;;;;;5.07;1.60;;;5.80;95.60;;;;;;5054967;28;20044;-70
2024/01/09 01:55:21;;;;;;;3.17;1.45;;;5.70;95.70;;;;;;5067674;28;20563;-70
2024/01/09 01:57:49;;;;;;;3.83;1.83;;;5.60;95.20;;;;;;5055646;28;20060;-72
2024/01/09 02:00:16;;;;;;;4.72;1.95;;;5.50;94.70;;;;;;5067511;28;20398;-70
2024/01/09 02:02:44;;;;;;;3.70;1.90;;;5.50;95.60;;;;;;5067847;28;20040;-70
2024/01/09 02:05:11;;;;;;;3.75;1.70;;;5.50;95.80;;;;;;5065451;28;20624;-70
2024/01/09 02:07:38;;;;;;;4.10;1.75;;;5.30;95.70;;;;;;5061714;28;20069;-71
2024/01/09 02:10:04;;;;;;;3.85;1.75;;;5.20;95.40;;;;;;5067284;28;20036;-70
2024/01/09 02:12:30;;;;;;;5.03;1.40;;;5.20;95.50;;;;;;5066280;28;20049;-70
2024/01/09 02:14:56;;;;;;;3.35;1.83;;;5.20;96.10;;;;;;5068451;28;20569;-71
2024/01/09 02:17:22;;;;;;;3.17;1.65;;;5.20;95.20;;;;;;5068306;28;20089;-70
2024/01/09 02:19:47;;;;;;;4.07;1.77;;;5.20;96.10;;;;;;5065757;28;20043;-70
2024/01/09 02:22:13;;;;;;;4.80;1.63;;;5.00;95.80;;;;;;5059860;28;20108;-71
2024/01/09 02:24:39;;;;;;;4.22;1.92;;;5.10;95.40;;;;;;5061689;28;20064;-71
2024/01/09 02:27:19;;;;;;;3.63;1.70;;;5.20;95.40;;;;;;5068754;28;20105;-70
2024/01/09 02:29:49;;;;;;;4.15;1.52;;;5.10;95.50;;;;;;5067898;28;20033;-70
2024/01/09 02:32:16;;;;;;;4.70;1.80;;;5.10;96.10;;;;;;5069729;28;20047;-71
2024/01/09 02:34:44;;;;;;;5.45;2.08;;;4.90;96.00;;;;;;5064750;28;20037;-70
2024/01/09 02:37:10;;;;;;;3.10;1.80;;;4.90;95.50;;;;;;5058634;28;20040;-70
2024/01/09 02:39:36;;;;;;;4.25;1.92;;;5.00;96.00;;;;;;5064718;28;20036;-71
2024/01/09 02:42:02;;;;;;;3.58;1.83;;;5.00;95.70;;;;;;5068237;28;20039;-71
2024/01/09 02:44:28;;;;;;;4.03;2.10;;;5.00;95.40;;;;;;5063368;28;20064;-70
2024/01/09 02:46:53;;;;;;;3.67;1.67;;;5.10;95.50;;;;;;5061069;28;20029;-71
2024/01/09 02:49:19;;;;;;;6.65;2.13;;;5.20;95.60;;;;;;5062150;28;20020;-70
2024/01/09 02:51:44;;;;;;;3.45;1.73;;;5.00;95.90;;;;;;5068722;28;21661;-70
2024/01/09 02:54:10;;;;;;;4.47;1.90;;;5.00;95.70;;;;;;5057689;28;20040;-71
2024/01/09 02:56:38;;;;;;;3.30;1.70;;;5.00;95.60;;;;;;5064602;28;20038;-70
2024/01/09 02:59:04;;;;;;;2.47;1.35;;;5.10;95.30;;;;;;5067441;28;20124;-70
2024/01/09 03:01:30;;;;;;;3.20;1.50;;;5.20;95.30;;;;;;5072869;28;20120;-70
2024/01/09 03:03:56;;;;;;;3.38;1.65;;;5.20;95.30;;;;;;5068347;28;20043;-70
2024/01/09 03:06:21;;;;;;;4.75;1.77;;;5.20;95.50;;;;;;5063847;28;20043;-70
2024/01/09 03:08:50;;;;;;;3.55;1.67;;;5.30;96.70;;;;;;5062115;28;20039;-71
2024/01/09 03:11:16;;;;;;;3.25;1.67;;;5.10;96.80;;;;;;5071724;28;20418;-71
2024/01/09 03:13:42;;;;;;;4.03;2.05;;;5.10;96.00;;;;;;5066861;28;20039;-70
2024/01/09 03:16:12;;;;;;;3.80;1.67;;;5.00;95.90;;;;;;5065199;28;20044;-70
2024/01/09 03:18:38;;;;;;;3.20;1.45;;;4.90;96.10;;;;;;5064212;28;20471;-70
2024/01/09 03:21:04;;;;;;;3.00;1.60;;;4.90;96.90;;;;;;5058172;28;20024;-70
2024/01/09 03:23:32;;;;;;;3.95;1.90;;;4.80;96.70;;;;;;5060401;28;20029;-70
2024/01/09 03:25:57;;;;;;;3.05;1.60;;;4.80;95.80;;;;;;5069961;28;20044;-70
2024/01/09 03:28:24;;;;;;;5.05;2.08;;;4.90;95.90;;;;;;5059796;28;20043;-70
2024/01/09 03:30:50;;;;;;;5.65;1.95;;;5.00;96.50;;;;;;5059903;28;20036;-70
2024/01/09 03:33:16;;;;;;;3.10;1.65;;;5.00;97.10;;;;;;5059974;28;20109;-71
2024/01/09 03:35:41;;;;;;;3.85;1.65;;;4.90;96.50;;;;;;5065290;28;20032;-70
2024/01/09 03:38:07;;;;;;;2.45;1.27;;;4.90;96.80;;;;;;5063367;28;20796;-71
2024/01/09 03:40:33;;;;;;;3.95;1.58;;;4.90;96.80;;;;;;5056038;28;20040;-71
2024/01/09 03:42:59;;;;;;;3.83;1.75;;;4.80;96.80;;;;;;5067018;28;20120;-71
2024/01/09 03:45:24;;;;;;;4.47;1.42;;;4.90;96.60;;;;;;5067210;28;20193;-72
2024/01/09 03:47:50;;;;;;;4.13;1.83;;;4.90;96.60;;;;;;5060219;28;20036;-70
2024/01/09 03:50:15;;;;;;;3.83;1.83;;;4.80;96.80;;;;;;5067273;28;20032;-71
2024/01/09 03:52:41;;;;;;;2.15;1.23;;;4.80;96.20;;;;;;5059050;28;20028;-70
2024/01/09 03:55:07;;;;;;;3.60;1.90;;;4.80;96.30;;;;;;5057426;28;20044;-70
2024/01/09 03:57:33;;;;;;;4.15;1.95;;;4.80;96.40;;;;;;5056841;28;20036;-70
2024/01/09 03:59:59;;;;;;;2.80;1.55;;;4.80;96.50;;;;;;5068406;28;20067;-71
2024/01/09 04:02:24;;;;;;;4.30;2.08;;;4.70;96.90;;;;;;5070015;28;20044;-71
2024/01/09 04:04:50;;;;;;;4.00;1.70;;;4.70;97.00;;;;;;5055346;28;20116;-70
2024/01/09 04:07:16;;;;;;;4.10;1.83;;;4.70;96.70;;;;;;5054523;28;20056;-71
2024/01/09 04:09:41;;;;;;;4.15;1.83;;;4.70;96.60;;;;;;5058583;28;20463;-70
2024/01/09 04:12:07;;;;;;;3.35;1.90;;;4.70;96.60;;;;;;5064591;28;20278;-70
2024/01/09 04:14:33;;;;;;;4.97;2.33;;;4.70;96.60;;;;;;5065048;28;20458;-72
2024/01/09 04:16:58;;;;;;;3.75;1.80;;;4.70;96.20;;;;;;5053005;28;20167;-70
2024/01/09 04:19:24;;;;;;;4.05;1.65;;;4.80;96.50;;;;;;5067063;28;20048;-71
2024/01/09 04:21:49;;;;;;;3.15;1.65;;;4.80;97.60;;;;;;5056013;28;20036;-70
2024/01/09 04:24:15;;;;;;;3.40;1.73;;;4.70;97.50;;;;;;5057471;28;20032;-70
2024/01/09 04:26:41;;;;;;;4.70;1.92;;;4.50;97.30;;;;;;5053180;28;20039;-71
2024/01/09 04:29:06;;;;;;;4.35;2.05;;;4.50;97.00;;;;;;5052701;28;20100;-70
2024/01/09 04:31:32;;;;;;;3.58;1.85;;;4.50;97.30;;;;;;5064507;28;20531;-70
2024/01/09 04:33:58;;;;;;;3.53;1.80;;;4.50;97.30;;;;;;5059275;28;20044;-72
2024/01/09 04:36:24;;;;;;;3.33;1.85;;;4.50;97.10;;;;;;5061657;28;20047;-70
2024/01/09 04:38:50;;;;;;;4.43;2.05;;;4.60;97.00;;;;;;5053824;28;20028;-71
2024/01/09 04:41:17;;;;;;;3.47;1.95;;;4.40;97.40;;;;;;5051811;28;20442;-71
2024/01/09 04:43:44;;;;;;;4.28;1.85;;;4.40;97.80;;;;;;5058618;28;20085;-70
2024/01/09 04:46:10;;;;;;;3.80;1.92;;;4.30;97.70;;;;;;5064183;28;20040;-71
2024/01/09 04:48:36;;;;;;;3.15;1.60;;;4.20;97.80;;;;;;5052367;28;20540;-70
2024/01/09 04:51:02;;;;;;;4.07;2.10;;;4.30;98.00;;;;;;5062500;28;20607;-70
2024/01/09 04:53:27;;;;;;;3.97;1.80;;;4.10;98.00;;;;;;5058970;28;20036;-70
2024/01/09 04:55:53;;;;;;;3.40;1.52;;;3.90;98.30;;;;;;5065695;28;20394;-71
2024/01/09 04:58:19;;;;;;;3.78;2.05;;;3.80;98.50;;;;;;5061782;28;20458;-70
2024/01/09 05:00:45;;;;;;;3.63;2.10;;;3.90;98.50;;;;;;5052898;28;20039;-70
2024/01/09 05:03:11;;;;;;;3.42;1.65;;;3.90;98.50;;;;;;5048981;28;20579;-70
2024/01/09 05:05:36;;;;;;;4.50;1.73;;;3.80;98.40;;;;;;5057226;28;20120;-70
2024/01/09 05:08:02;;;;;;;3.60;1.60;;;3.80;98.60;;;;;;5053474;28;20134;-70
2024/01/09 05:10:30;;;;;;;4.25;1.67;;;3.70;98.80;;;;;;5061530;28;20056;-71
2024/01/09 05:12:56;;;;;;;4.05;2.10;;;3.60;98.90;;;;;;5056817;28;20580;-70
2024/01/09 05:15:22;;;;;;;3.17;1.50;;;3.60;99.20;;;;;;5064943;28;20918;-70
2024/01/09 05:17:48;;;;;;;3.55;1.85;;;3.50;99.10;;;;;;5048010;28;20041;-70
2024/01/09 05:20:14;;;;;;;4.35;1.83;;;3.60;99.20;;;;;;5047611;28;20103;-70
2024/01/09 05:22:39;;;;;;;3.90;1.75;;;3.50;99.40;;;;;;5048273;28;20060;-70
2024/01/09 05:25:06;;;;;;;3.47;1.88;;;3.50;99.00;;;;;;5047034;28;20048;-72
2024/01/09 05:27:32;;;;;;;4.75;1.90;;;3.50;99.30;;;;;;5046256;28;20043;-70
2024/01/09 05:29:58;;;;;;;3.55;2.05;;;3.30;99.70;;;;;;5050854;28;20750;-70
2024/01/09 05:32:24;;;;;;;3.67;1.83;;;3.30;99.90;;;;;;5053519;28;20028;-70
2024/01/09 05:34:50;;;;;;;3.28;1.83;;;3.20;99.80;;;;;;5054717;28;20115;-70
2024/01/09 05:37:16;;;;;;;4.85;2.88;;;3.30;99.90;;;;;;5059481;28;20033;-70
2024/01/09 05:39:48;;;;;;;3.95;2.00;;;3.30;99.80;;;;;;5055412;28;20020;-70
2024/01/09 05:42:14;;;;;;;4.90;1.95;;;3.40;99.90;;;;;;5051262;28;20040;-70
2024/01/09 05:44:39;;;;;;;4.90;2.30;;;3.50;99.90;;;;;;5054975;28;20044;-70
2024/01/09 05:47:05;;;;;;;5.65;2.08;;;3.50;99.80;;;;;;5062182;28;20461;-70
2024/01/09 05:49:31;;;;;;;2.63;1.70;;;3.60;99.50;;;;;;5056806;28;20490;-70
2024/01/09 05:51:56;;;;;;;4.90;2.30;;;3.70;99.60;;;;;;5063297;28;20030;-70
2024/01/09 05:54:22;;;;;;;4.28;2.10;;;3.60;99.80;;;;;;5050941;28;20068;-70
2024/01/09 05:56:48;;;;;;;3.60;1.73;;;3.50;99.90;;;;;;5061790;28;20036;-70
2024/01/09 05:59:15;;;;;;;4.22;2.00;;;3.70;99.70;;;;;;5057438;28;20375;-71
2024/01/09 06:01:40;;;;;;;3.88;2.03;;;3.70;99.40;;;;;;5050012;28;20063;-70
2024/01/09 06:04:06;;;;;;;4.47;2.28;;;3.70;99.90;;;;;;5049564;28;20036;-70
2024/01/09 06:06:32;;;;;;;4.30;2.08;;;3.70;99.90;;;;;;5049724;28;20043;-70
2024/01/09 06:08:57;;;;;;;4.47;2.42;;;3.70;99.70;;;;;;5055107;28;20039;-69
2024/01/09 06:11:23;;;;;;;7.10;3.55;;;3.70;99.80;;;;;;5058568;28;20055;-70
2024/01/09 06:13:49;;;;;;;4.97;2.13;;;3.80;99.90;;;;;;5056539;28;20032;-70
2024/01/09 06:16:14;;;;;;;4.50;2.45;;;3.70;99.90;;;;;;5046063;28;20910;-70
2024/01/09 06:18:40;;;;;;;4.25;2.30;;;3.80;99.70;;;;;;5067277;28;20622;-78
2024/01/09 06:21:06;;;;;;;4.18;2.30;;;3.90;99.70;;;;;;5058243;28;20033;-70
2024/01/09 06:23:31;;;;;;;5.05;2.60;;;4.00;99.30;;;;;;5050728;28;20040;-70
2024/01/09 06:25:57;;;;;;;4.25;2.50;;;3.80;99.40;;;;;;5056793;28;20067;-71
2024/01/09 06:28:23;;;;;;;4.97;2.88;;;3.90;99.30;;;;;;5059580;28;20041;-70
2024/01/09 06:30:49;;;;;;;5.03;2.40;;;4.10;99.30;;;;;;5047782;28;20035;-70
2024/01/09 06:33:15;;;;;;;4.75;2.42;;;4.20;99.10;;;;;;5056279;28;20130;-71
2024/01/09 06:35:41;;;;;;;5.00;2.42;;;4.30;99.10;;;;;;5059297;28;20819;-70
2024/01/09 06:38:06;;;;;;;4.00;2.33;;;4.10;99.40;;;;;;5054950;28;20063;-70
2024/01/09 06:40:32;;;;;;;3.90;2.10;;;4.10;99.20;;;;;;5047166;28;20058;-70
2024/01/09 06:42:58;;;;;;;4.03;2.20;;;4.10;99.50;;;;;;5053302;28;20036;-71
2024/01/09 06:45:23;;;;;;;4.93;2.58;;;4.00;99.70;;;;;;5062105;28;20071;-70
2024/01/09 06:47:49;;;;;;;4.47;2.40;;;4.00;99.80;;;;;;5057474;28;20032;-70
2024/01/09 06:50:15;;;;;;;3.40;2.00;;;3.90;99.90;;;;;;5051158;28;20040;-70
2024/01/09 06:52:41;;;;;;;4.95;2.45;;;3.90;99.90;;;;;;5057133;28;20032;-70
2024/01/09 06:55:06;;;;;;;4.60;2.38;;;3.90;99.90;;;;;;5057928;28;20123;-71
2024/01/09 06:57:32;;;;;;;4.75;2.55;;;3.90;99.90;;;;;;5058784;28;20064;-70
2024/01/09 06:59:58;;;;;;;5.22;2.53;;;3.90;99.90;;;;;;5054816;28;20505;-70
2024/01/09 07:02:23;;;;;;;4.07;2.50;;;3.90;99.90;;;;;;5066970;28;20107;-70
2024/01/09 07:04:49;;;;;;;5.05;2.20;;;3.90;99.90;;;;;;5061261;28;20036;-70
2024/01/09 07:07:15;;;;;;;5.82;2.78;;;4.10;99.70;;;;;;5062375;28;20107;-70
2024/01/09 07:09:41;;;;;;;4.50;2.35;;;4.20;99.70;;;;;;5057852;28;20029;-70
2024/01/09 07:12:09;;;;;;;5.95;2.42;;;4.20;99.80;;;;;;5061457;28;20063;-70
2024/01/09 07:14:36;;;;;;;4.70;2.03;;;4.20;99.40;;;;;;5058214;28;20128;-72
2024/01/09 07:17:03;;;;;;;5.75;2.80;;;4.20;99.30;;;;;;5060368;28;20016;-74
2024/01/09 07:19:30;;;;;;;3.70;2.10;;;4.20;99.50;;;;;;5059631;28;20060;-70
2024/01/09 07:21:56;;;;;;;5.82;2.72;;;4.10;99.70;;;;;;5050287;28;20514;-70
2024/01/09 07:24:21;;;;;;;3.60;1.90;;;4.10;99.70;;;;;;5051826;28;20028;-70
2024/01/09 07:26:47;;;;;;;5.40;3.03;;;4.10;99.70;;;;;;5051154;28;20032;-70
2024/01/09 07:29:16;;;;;;;5.05;2.75;;;4.20;99.70;;;;;;5057033;28;20032;-71
2024/01/09 07:31:42;;;;;;;5.10;2.83;;;4.20;99.70;;;;;;5056922;28;20490;-70
2024/01/09 07:34:08;;;;;;;4.20;2.47;;;4.20;99.80;;;;;;5061080;28;20032;-70
2024/01/09 07:36:34;;;;;;;4.10;2.30;;;4.40;99.40;;;;;;5057117;28;20025;-71
2024/01/09 07:39:00;;;;;;;7.82;3.22;;;4.50;99.90;;;;;;5051901;28;20060;-70
2024/01/09 07:41:26;;;;;;;7.10;3.50;;;4.40;99.40;;;;;;5052240;28;20036;-71
2024/01/09 07:43:51;;;;;;;8.07;2.42;;;4.50;99.90;;;;;;5053465;28;20721;-71
2024/01/09 07:46:17;;;;;;;5.50;2.65;;;4.50;99.90;;;;;;5052632;28;20040;-70
2024/01/09 07:48:43;;;;;;;5.00;2.53;;;4.50;99.10;;;;;;5062604;28;20032;-70
2024/01/09 07:51:09;;;;;;;4.63;2.13;;;4.60;98.90;;;;;;5057172;28;20151;-70
2024/01/09 07:53:35;;;;;;;4.53;2.50;;;4.70;98.30;;;;;;5059392;28;20729;-71
2024/01/09 07:56:01;;;;;;;5.38;2.70;;;4.70;99.10;;;;;;5055976;28;20035;-72
2024/01/09 07:58:26;;;;;;;4.80;2.70;;;4.80;98.60;;;;;;5060337;28;20661;-73
2024/01/09 08:00:53;;;;;;;4.78;2.45;;;4.90;99.00;;;;;;5066616;28;20039;-72
2024/01/09 08:03:19;;;;;;;3.90;2.20;;;4.90;98.80;;;;;;5066428;28;20646;-73
2024/01/09 08:05:45;;;;;;;4.68;2.25;;;4.90;98.30;;;;;;5059558;28;20040;-71
2024/01/09 08:08:11;;;;;;;3.90;2.10;;;4.90;97.90;;;;;;5060376;28;20044;-74
2024/01/09 08:10:37;;;;;;;5.00;2.22;;;5.00;97.90;;;;;;5064616;28;20417;-74
2024/01/09 08:13:03;;;;;;;5.03;2.33;;;5.00;98.00;;;;;;5063587;28;20028;-71
2024/01/09 08:15:29;;;;;;;4.38;2.30;;;5.00;97.80;;;;;;5068820;28;20048;-73
2024/01/09 08:17:55;;;;;;;5.22;2.65;;;5.10;97.50;;;;;;5057350;28;20066;-72
2024/01/09 08:20:20;;;;;;;5.43;2.40;;;5.00;97.80;;;;;;5058151;28;20108;-73
2024/01/09 08:22:48;;;;;;;4.97;2.47;;;5.00;98.30;;;;;;5062163;28;20067;-71
2024/01/09 08:25:13;;;;;;;4.63;2.60;;;5.00;98.30;;;;;;5065295;28;20133;-72
2024/01/09 08:27:40;;;;;;;3.95;2.10;;;5.10;98.60;;;;;;5067404;28;20276;-71
2024/01/09 08:30:10;;;;;;;4.22;2.42;;;5.10;98.80;;;;;;5064404;28;20028;-72
2024/01/09 08:32:37;;;;;;;3.92;2.78;;;5.10;99.00;;;;;;5071489;28;20051;-74
2024/01/09 08:35:03;;;;;;;4.05;2.25;;;5.10;99.60;;;;;;5065843;28;20048;-73
2024/01/09 08:37:29;;;;;;;5.57;2.63;;;5.10;99.10;;;;;;5061027;28;20043;-73
2024/01/09 08:39:54;;;;;;;6.47;2.55;;;5.10;99.40;;;;;;5057547;28;20034;-72
2024/01/09 08:42:20;;;;;;;5.45;2.20;;;5.20;99.40;;;;;;5056813;28;20048;-73
2024/01/09 08:44:45;;;;;;;12.23;6.60;;;5.30;99.90;;;;;;5058159;28;20705;-73
2024/01/09 08:47:12;;;;;;;6.10;3.38;;;5.40;99.20;;;;;;5069883;28;20585;-71
2024/01/09 08:49:38;;;;;;;5.03;2.80;;;5.30;99.30;;;;;;5068869;28;20742;-75
2024/01/09 08:52:04;;;;;;;4.35;2.42;;;5.30;99.30;;;;;;5053358;28;20033;-74
2024/01/09 08:54:30;;;;;;;21.67;4.10;;;5.30;99.30;;;;;;5063615;28;20031;-73
2024/01/09 08:56:56;;;;;;;8.32;2.88;;;5.50;99.80;;;;;;5064297;28;20107;-73
2024/01/09 08:59:22;;;;;;;6.95;3.20;;;5.50;99.10;;;;;;5068263;28;20028;-73
2024/01/09 09:01:47;;;;;;;6.97;2.92;;;5.50;99.30;;;;;;5064794;28;20497;-73
2024/01/09 09:04:13;;;;;;;5.85;2.83;;;5.40;98.90;;;;;;5068639;28;20031;-72
2024/01/09 09:06:39;;;;;;;5.57;2.53;;;5.40;99.00;;;;;;5069077;28;20036;-73
2024/01/09 09:09:04;;;;;;;6.07;3.25;;;5.50;99.40;;;;;;5070211;28;20680;-75
2024/01/09 09:11:32;;;;;;;10.80;3.10;;;5.50;99.90;;;;;;5065401;28;20087;-73
2024/01/09 09:13:58;;;;;;;6.68;2.90;;;5.60;99.90;;;;;;5054012;28;20458;-73
2024/01/09 09:16:28;;;;;;;6.32;3.40;;;5.60;99.90;;;;;;5064357;28;20036;-74
2024/01/09 09:18:54;;;;;;;7.82;3.95;;;5.60;99.90;;;;;;5060861;28;20036;-76
2024/01/09 09:21:19;;;;;;;8.80;4.20;;;5.70;99.90;;;;;;5064926;28;20024;-73
2024/01/09 09:23:45;;;;;;;8.07;4.28;;;5.70;99.90;;;;;;5064553;28;20032;-72
2024/01/09 09:26:12;;;;;;;6.75;3.83;;;5.60;99.90;;;;;;5056861;28;20493;-72
2024/01/09 09:28:37;;;;;;;8.32;3.85;;;5.60;99.70;;;;;;5057056;28;20024;-72
2024/01/09 09:31:03;;;;;;;6.97;3.55;;;6.40;99.90;;;;;;5057037;28;20502;-73
2024/01/09 09:33:31;;;;;;;5.90;3.30;;;6.20;99.30;;;;;;5058857;28;20555;-73
2024/01/09 09:35:57;;;;;;;7.45;3.67;;;6.00;99.20;;;;;;5060449;28;20036;-74
2024/01/09 09:38:24;;;;;;;6.43;3.25;;;5.90;99.70;;;;;;5066862;28;20042;-75
2024/01/09 09:40:51;;;;;;;6.15;2.90;;;6.00;99.60;;;;;;5058485;28;20085;-74
2024/01/09 09:43:24;;;;;;;6.22;3.20;;;6.00;99.40;;;;;;5067190;28;20064;-75
2024/01/09 09:45:54;;;;;;;6.57;3.35;;;6.00;98.70;;;;;;5058408;28;20048;-76
2024/01/09 09:48:23;;;;;;;6.35;3.75;;;6.10;98.90;;;;;;5064846;28;20807;-75
2024/01/09 09:50:53;;;;;;;6.53;3.13;;;5.90;98.50;;;;;;5069547;28;20032;-75
2024/01/09 09:53:20;;;;;;;7.47;3.42;;;5.90;98.50;;;;;;5063838;28;20043;-74
2024/01/09 09:55:47;;;;;;;5.78;3.42;;;5.90;98.50;;;;;;5062096;28;20039;-76
2024/01/09 09:58:12;;;;;;;5.47;3.10;;;6.00;99.00;;;;;;5067468;28;20381;-72
2024/01/09 10:00:38;;;;;;;8.23;3.53;;;6.20;98.60;;;;;;5058690;28;20063;-73
2024/01/09 10:03:08;;;;;;;5.25;2.88;;;6.20;98.40;;;;;;5060332;28;20028;-72
2024/01/09 10:05:39;;;;;;;6.20;3.00;;;6.10;98.60;;;;;;5062938;28;20127;-72
2024/01/09 10:08:10;;;;;;;6.38;3.28;;;6.10;98.70;;;;;;5057833;28;20052;-73
2024/01/09 10:10:36;;;;;;;6.20;3.95;;;6.00;98.60;;;;;;5062872;28;20473;-73
2024/01/09 10:13:03;;;;;;;6.05;3.47;;;6.10;98.60;;;;;;5060997;28;20043;-73
2024/01/09 10:15:29;;;;;;;6.88;2.88;;;6.10;98.40;;;;;;5058476;28;20364;-73
2024/01/09 10:17:57;;;;;;;4.65;2.35;;;6.10;98.30;;;;;;5061544;28;20036;-73
2024/01/09 10:20:27;;;;;;;6.68;3.50;;;6.00;98.60;;;;;;5068324;28;20032;-73
2024/01/09 10:22:53;;;;;;;5.30;2.60;;;6.00;98.70;;;;;;5064891;28;20032;-73
2024/01/09 10:25:20;;;;;;;5.57;3.17;;;6.00;98.60;;;;;;5062794;28;20668;-73
2024/01/09 10:27:46;;;;;;;5.25;3.13;;;5.90;98.50;;;;;;5050562;28;20106;-73
2024/01/09 10:30:12;;;;;;;6.95;3.42;;;6.00;98.80;;;;;;5055130;28;20037;-73
2024/01/09 10:32:39;;;;;;;7.95;3.53;;;6.00;99.40;;;;;;5064933;28;20056;-72
2024/01/09 10:35:05;;;;;;;5.53;2.97;;;6.00;99.00;;;;;;5069735;28;20032;-73
2024/01/09 10:37:32;;;;;;;7.43;5.03;;;6.00;98.10;;;;;;5070595;28;20044;-72
2024/01/09 10:39:58;;;;;;;8.23;4.70;;;6.10;98.30;;;;;;5065355;28;20122;-73
2024/01/09 10:42:24;;;;;;;6.18;3.60;;;6.10;98.20;;;;;;5064053;28;20107;-72
2024/01/09 10:44:50;;;;;;;5.95;3.75;;;6.20;98.80;;;;;;5061628;28;21698;-73
2024/01/09 10:47:17;;;;;;;8.90;3.72;;;6.20;98.80;;;;;;5066715;28;20032;-75
2024/01/09 10:49:45;;;;;;;6.65;3.40;;;6.20;98.60;;;;;;5066368;28;20397;-73
2024/01/09 10:52:15;;;;;;;5.95;3.63;;;6.30;98.90;;;;;;5062224;28;20145;-73
2024/01/09 10:54:42;;;;;;;7.15;3.72;;;6.20;98.50;;;;;;5066967;28;20039;-73
2024/01/09 10:57:12;;;;;;;8.63;5.90;;;6.10;98.20;;;;;;5057693;28;20379;-73
2024/01/09 10:59:40;;;;;;;9.32;3.70;;;6.20;98.70;;;;;;5073620;28;20036;-72
2024/01/09 11:02:16;;;;;;;6.70;3.65;;;6.20;98.50;;;;;;5072275;28;20032;-74
2024/01/09 11:04:45;;;;;;;12.13;8.48;;;6.30;98.60;;;;;;5069752;28;20370;-73
2024/01/09 11:07:15;;;;;;;14.80;10.85;;;6.20;99.00;;;;;;5068148;28;20024;-73
2024/01/09 11:09:46;;;;;;;10.20;7.78;;;6.30;99.10;;;;;;5066106;28;20032;-74
2024/01/09 11:12:20;;;;;;;7.65;5.32;;;6.30;99.00;;;;;;5065624;28;20040;-72
2024/01/09 11:14:50;;;;;;;7.22;4.15;;;6.40;99.00;;;;;;5069793;28;20039;-73
2024/01/09 11:17:18;;;;;;;7.00;4.18;;;6.40;99.20;;;;;;5061454;28;20044;-73
2024/01/09 11:19:44;;;;;;;6.90;3.22;;;6.30;98.70;;;;;;5068530;28;20071;-73
2024/01/09 11:22:19;;;;;;;10.38;4.53;;;6.30;98.90;;;;;;5070836;28;20442;-73
2024/01/09 11:24:55;;;;;;;6.38;4.20;;;6.30;98.90;;;;;;5071346;28;21550;-73
2024/01/09 11:27:21;;;;;;;7.70;3.97;;;6.50;98.90;;;;;;5063793;28;20126;-73
2024/01/09 11:29:54;;;;;;;8.02;3.63;;;6.50;98.70;;;;;;5071642;28;20047;-73
2024/01/09 11:32:25;;;;;;;9.23;3.70;;;6.40;98.40;;;;;;5059439;28;20381;-73
2024/01/09 11:35:14;;;;;;;7.18;3.70;;;6.40;98.50;;;;;;5069434;28;20460;-72
2024/01/09 11:37:46;;;;;;;6.60;3.45;;;6.30;98.20;;;;;;5058888;28;20047;-73
2024/01/09 11:40:13;;;;;;;7.93;3.90;;;6.40;98.20;;;;;;5063997;28;20043;-72
2024/01/09 11:42:43;;;;;;;5.18;3.00;;;6.40;98.10;;;;;;5063613;28;20081;-73
2024/01/09 11:45:09;;;;;;;6.53;3.35;;;6.30;98.10;;;;;;5059766;28;20052;-73
2024/01/09 11:47:43;;;;;;;6.70;3.15;;;6.40;98.40;;;;;;5059905;28;20120;-73
2024/01/09 11:50:10;;;;;;;8.43;4.18;;;6.40;98.00;;;;;;5062046;28;20032;-74
2024/01/09 11:52:37;;;;;;;7.70;3.67;;;6.30;98.00;;;;;;5058713;28;20024;-74
2024/01/09 11:55:05;;;;;;;5.95;3.70;;;6.40;97.90;;;;;;5067045;28;20478;-73
2024/01/09 11:57:31;;;;;;;6.60;3.40;;;6.30;98.00;;;;;;5069214;28;20534;-74
2024/01/09 11:59:59;;;;;;;6.28;3.40;;;6.30;97.90;;;;;;5062293;28;20105;-75
2024/01/09 12:02:25;;;;;;;5.40;3.05;;;6.40;98.10;;;;;;5058736;28;20043;-75
2024/01/09 12:04:52;;;;;;;6.18;3.08;;;6.50;98.10;;;;;;5059161;28;20163;-75
2024/01/09 12:07:18;;;;;;;6.68;3.88;;;6.50;97.90;;;;;;5063579;28;20078;-75
2024/01/09 12:09:46;;;;;;;6.00;3.45;;;6.60;98.10;;;;;;5067510;28;20032;-74
2024/01/09 12:12:22;;;;;;;7.75;3.75;;;6.60;98.10;;;;;;5070139;28;20105;-75
2024/01/09 12:14:55;;;;;;;8.35;3.58;;;6.50;97.70;;;;;;5069681;28;20039;-75
2024/01/09 12:17:37;;;;;;;7.63;3.80;;;6.50;98.30;;;;;;5062999;28;20028;-74
2024/01/09 12:20:04;;;;;;;6.45;3.58;;;6.50;97.80;;;;;;5062231;28;20029;-75
2024/01/09 12:22:35;;;;;;;6.68;3.85;;;6.40;98.20;;;;;;5061783;28;20101;-75
2024/01/09 12:25:01;;;;;;;6.20;3.33;;;6.40;98.40;;;;;;5068694;28;20409;-75
2024/01/09 12:27:28;;;;;;;6.70;3.30;;;6.50;97.70;;;;;;5056963;28;20032;-75
2024/01/09 12:29:56;;;;;;;6.15;3.50;;;6.50;98.20;;;;;;5072044;28;20032;-75
2024/01/09 12:32:22;;;;;;;5.70;3.65;;;7.30;98.80;;;;;;5061462;28;20024;-75
2024/01/09 12:34:48;;;;;;;7.32;3.08;;;6.90;97.40;;;;;;5063041;28;20046;-75
2024/01/09 12:37:14;;;;;;;6.28;3.40;;;6.70;98.00;;;;;;5068571;28;20051;-74
2024/01/09 12:39:40;;;;;;;7.43;3.92;;;6.70;98.10;;;;;;5062931;28;20541;-74
2024/01/09 12:42:05;;;;;;;6.30;3.65;;;6.60;97.70;;;;;;5068714;28;20119;-74
2024/01/09 12:44:32;;;;;;;5.93;3.35;;;6.50;97.90;;;;;;5064321;28;20444;-75
2024/01/09 12:46:58;;;;;;;4.63;2.70;;;6.60;98.20;;;;;;5063453;28;20071;-75
2024/01/09 12:49:24;;;;;;;6.53;3.05;;;6.70;97.60;;;;;;5066659;28;20441;-75
2024/01/09 12:51:53;;;;;;;4.75;2.83;;;6.70;97.10;;;;;;5066845;28;20042;-75
2024/01/09 12:54:19;;;;;;;13.75;3.17;;;6.80;97.50;;;;;;5068061;28;20036;-75